createdAt,value
2023-04-26T00:00:09.457Z,5.80
2023-04-26T00:03:00.051Z,6.20
2023-04-26T00:05:29.725Z,6.20
2023-04-26T00:07:58.441Z,6.10
2023-04-26T00:10:26.870Z,5.60
2023-04-26T00:12:54.894Z,6.40
2023-04-26T00:15:22.851Z,5.80
2023-04-26T00:17:50.834Z,6.30
2023-04-26T00:20:19.092Z,5.90
2023-04-26T00:22:46.990Z,6.00
2023-04-26T00:25:14.931Z,7.40
2023-04-26T00:27:42.849Z,6.60
2023-04-26T00:30:11.239Z,6.00
2023-04-26T00:32:39.507Z,5.80
2023-04-26T00:35:08.374Z,6.40
2023-04-26T00:37:36.321Z,6.60
2023-04-26T00:40:06.223Z,6.90
2023-04-26T00:42:34.268Z,6.30
2023-04-26T00:45:02.277Z,5.80
2023-04-26T00:47:31.060Z,6.30
2023-04-26T00:50:01.341Z,6.20
2023-04-26T00:52:30.718Z,5.80
2023-04-26T00:54:59.044Z,5.50
2023-04-26T00:57:26.966Z,5.20
2023-04-26T00:59:56.490Z,6.30
2023-04-26T01:02:24.785Z,6.10
2023-04-26T01:04:52.914Z,5.60
2023-04-26T01:07:20.799Z,7.40
2023-04-26T01:09:50.595Z,7.20
2023-04-26T01:12:19.723Z,7.30
2023-04-26T01:14:48.734Z,6.80
2023-04-26T01:17:17.011Z,6.50
2023-04-26T01:19:49.317Z,6.00
2023-04-26T01:22:17.885Z,6.50
2023-04-26T01:24:50.264Z,6.00
2023-04-26T01:27:18.093Z,6.40
2023-04-26T01:29:46.700Z,5.80
2023-04-26T01:32:14.712Z,6.50
2023-04-26T01:34:42.710Z,6.20
2023-04-26T01:37:12.155Z,5.90
2023-04-26T01:39:40.025Z,5.90
2023-04-26T01:42:08.030Z,5.70
2023-04-26T01:44:36.554Z,5.80
2023-04-26T01:47:04.630Z,6.60
2023-04-26T01:49:32.755Z,6.30
2023-04-26T01:52:01.650Z,6.60
2023-04-26T01:54:31.496Z,5.90
2023-04-26T01:57:02.746Z,5.80
2023-04-26T01:59:30.899Z,6.70
2023-04-26T02:02:00.060Z,6.40
2023-04-26T02:04:28.459Z,6.40
2023-04-26T02:06:57.372Z,6.70
2023-04-26T02:09:25.494Z,6.10
2023-04-26T02:11:53.461Z,6.70
2023-04-26T02:14:21.376Z,6.90
2023-04-26T02:16:52.016Z,6.60
2023-04-26T02:19:19.986Z,6.50
2023-04-26T02:21:52.078Z,6.80
2023-04-26T02:24:20.139Z,6.30
2023-04-26T02:26:48.261Z,6.10
2023-04-26T02:29:16.223Z,6.30
2023-04-26T02:31:44.214Z,6.80
2023-04-26T02:34:12.638Z,6.30
2023-04-26T02:36:40.575Z,6.50
2023-04-26T02:39:08.797Z,6.40
2023-04-26T02:41:37.320Z,6.40
2023-04-26T02:44:05.372Z,7.50
2023-04-26T02:46:33.388Z,6.90
2023-04-26T02:49:01.333Z,7.20
2023-04-26T02:51:29.296Z,6.80
2023-04-26T02:53:57.222Z,6.70
2023-04-26T02:56:26.074Z,7.20
2023-04-26T02:58:55.735Z,7.40
2023-04-26T03:01:24.034Z,7.00
2023-04-26T03:03:52.596Z,6.80
2023-04-26T03:06:20.843Z,7.00
2023-04-26T03:08:48.832Z,7.50
2023-04-26T03:11:16.884Z,7.70
2023-04-26T03:13:44.850Z,6.70
2023-04-26T03:16:12.882Z,7.50
2023-04-26T03:18:41.347Z,7.00
2023-04-26T03:21:10.101Z,7.40
2023-04-26T03:23:38.068Z,6.80
2023-04-26T03:26:05.985Z,6.90
2023-04-26T03:28:33.893Z,7.40
2023-04-26T03:31:01.911Z,7.50
2023-04-26T03:33:31.856Z,7.90
2023-04-26T03:35:59.729Z,7.80
2023-04-26T03:38:27.682Z,7.30
2023-04-26T03:40:55.696Z,7.10
2023-04-26T03:43:24.090Z,6.80
2023-04-26T03:45:52.607Z,7.70
2023-04-26T03:48:20.862Z,6.80
2023-04-26T03:50:49.055Z,7.70
2023-04-26T03:53:17.821Z,8.90
2023-04-26T03:55:45.825Z,8.00
2023-04-26T03:58:15.039Z,8.30
2023-04-26T04:00:43.705Z,8.40
2023-04-26T04:03:12.558Z,9.20
2023-04-26T04:05:41.670Z,8.90
2023-04-26T04:08:09.872Z,9.00
2023-04-26T04:10:38.158Z,9.30
2023-04-26T04:13:06.451Z,9.30
2023-04-26T04:15:34.561Z,9.50
2023-04-26T04:18:03.472Z,9.20
2023-04-26T04:20:31.458Z,9.60
2023-04-26T04:23:02.146Z,9.90
2023-04-26T04:25:30.487Z,9.60
2023-04-26T04:28:03.191Z,8.40
2023-04-26T04:30:32.120Z,9.00
2023-04-26T04:33:01.617Z,8.80
2023-04-26T04:35:33.662Z,8.20
2023-04-26T04:38:03.450Z,8.60
2023-04-26T04:40:32.171Z,8.20
2023-04-26T04:43:03.450Z,8.80
2023-04-26T04:45:32.797Z,9.50
2023-04-26T04:48:02.098Z,10.40
2023-04-26T04:50:32.196Z,8.10
2023-04-26T04:53:00.242Z,10.20
2023-04-26T04:55:28.522Z,9.20
2023-04-26T04:57:56.708Z,8.70
2023-04-26T05:00:24.800Z,10.10
2023-04-26T05:02:58.935Z,9.70
2023-04-26T05:05:27.316Z,9.80
2023-04-26T05:07:55.394Z,10.10
2023-04-26T05:10:23.341Z,9.20
2023-04-26T05:12:51.353Z,9.10
2023-04-26T05:15:19.455Z,12.90
2023-04-26T05:17:47.637Z,23.80
2023-04-26T05:20:22.519Z,13.20
2023-04-26T05:22:51.159Z,9.80
2023-04-26T05:25:21.627Z,8.90
2023-04-26T05:27:53.382Z,8.40
2023-04-26T05:30:29.043Z,7.90
2023-04-26T05:33:19.662Z,7.80
2023-04-26T05:36:16.850Z,7.30
2023-04-26T05:38:44.864Z,7.30
2023-04-26T05:41:12.736Z,7.80
2023-04-26T05:43:40.664Z,8.00
2023-04-26T05:46:08.760Z,8.30
2023-04-26T05:48:36.728Z,7.40
2023-04-26T05:51:04.956Z,7.00
2023-04-26T05:53:33.861Z,8.20
2023-04-26T05:56:02.292Z,8.10
2023-04-26T05:58:30.208Z,7.30
2023-04-26T06:00:58.163Z,7.90
2023-04-26T06:03:26.281Z,7.70
2023-04-26T06:05:55.270Z,7.20
2023-04-26T06:08:23.556Z,7.90
2023-04-26T06:10:51.561Z,7.30
2023-04-26T06:13:19.399Z,7.60
2023-04-26T06:15:47.423Z,8.00
2023-04-26T06:18:15.737Z,7.20
2023-04-26T06:20:43.826Z,7.10
2023-04-26T06:23:11.865Z,7.60
2023-04-26T06:25:44.899Z,7.00
2023-04-26T06:28:13.134Z,6.50
2023-04-26T06:30:42.475Z,6.90
2023-04-26T06:33:10.782Z,6.40
2023-04-26T06:35:41.376Z,6.30
2023-04-26T06:38:09.839Z,5.80
2023-04-26T06:40:37.699Z,6.00
2023-04-26T06:43:05.744Z,6.10
2023-04-26T06:45:33.708Z,6.20
2023-04-26T06:48:03.593Z,6.80
2023-04-26T06:50:32.225Z,6.10
2023-04-26T06:53:00.387Z,6.40
2023-04-26T06:55:28.302Z,6.00
2023-04-26T06:57:57.205Z,5.80
2023-04-26T07:00:25.190Z,5.00
2023-04-26T07:02:53.269Z,5.60
2023-04-26T07:05:21.667Z,4.60
2023-04-26T07:07:50.704Z,4.90
2023-04-26T07:10:18.757Z,4.70
2023-04-26T07:12:47.445Z,4.80
2023-04-26T07:15:15.675Z,5.10
2023-04-26T07:17:43.687Z,5.30
2023-04-26T07:20:11.974Z,6.20
2023-04-26T07:22:39.861Z,6.80
2023-04-26T07:25:08.681Z,4.60
2023-04-26T07:27:36.729Z,5.70
2023-04-26T07:30:05.794Z,5.40
2023-04-26T07:32:33.918Z,5.20
2023-04-26T07:35:07.340Z,5.00
2023-04-26T07:37:35.329Z,4.60
2023-04-26T07:40:05.061Z,5.40
2023-04-26T07:42:32.912Z,4.90
2023-04-26T07:45:01.071Z,4.20
2023-04-26T07:47:29.210Z,4.70
2023-04-26T07:49:57.173Z,5.00
2023-04-26T07:52:25.109Z,5.10
2023-04-26T07:54:53.289Z,4.80
2023-04-26T07:57:21.159Z,5.10
2023-04-26T07:59:49.151Z,5.40
2023-04-26T08:02:17.271Z,5.00
2023-04-26T08:04:50.632Z,5.30
2023-04-26T08:07:19.501Z,5.20
2023-04-26T08:09:49.259Z,5.60
2023-04-26T08:12:17.392Z,4.90
2023-04-26T08:14:46.400Z,5.70
2023-04-26T08:17:14.379Z,5.40
2023-04-26T08:19:42.295Z,6.30
2023-04-26T08:22:10.257Z,6.60
2023-04-26T08:24:38.190Z,6.20
2023-04-26T08:27:06.355Z,6.20
2023-04-26T08:29:34.690Z,6.80
2023-04-26T08:32:05.704Z,5.90
2023-04-26T08:34:33.888Z,7.00
2023-04-26T08:37:01.824Z,5.90
2023-04-26T08:39:29.706Z,6.20
2023-04-26T08:42:05.938Z,6.60
2023-04-26T08:44:36.716Z,6.80
2023-04-26T08:47:10.582Z,7.00
2023-04-26T08:49:44.846Z,7.30
2023-04-26T08:52:15.249Z,8.30
2023-04-26T08:54:43.250Z,7.10
2023-04-26T08:57:11.849Z,7.30
2023-04-26T08:59:40.501Z,7.70
2023-04-26T09:02:11.100Z,8.20
2023-04-26T09:04:40.180Z,8.60
2023-04-26T09:07:11.449Z,8.50
2023-04-26T09:09:42.905Z,7.60
2023-04-26T09:12:11.006Z,8.40
2023-04-26T09:14:39.003Z,7.90
2023-04-26T09:17:32.348Z,8.00
2023-04-26T09:20:01.950Z,4.90
2023-04-26T09:22:35.899Z,4.40
2023-04-26T09:25:05.613Z,4.30
2023-04-26T09:27:41.864Z,3.90
2023-04-26T09:30:10.668Z,5.10
2023-04-26T09:32:55.994Z,4.30
2023-04-26T09:35:38.933Z,3.90
2023-04-26T09:38:13.256Z,4.20
2023-04-26T09:40:46.713Z,7.30
2023-04-26T09:43:16.917Z,4.30
2023-04-26T09:45:50.624Z,4.80
2023-04-26T09:48:23.479Z,4.00
2023-04-26T09:50:57.621Z,4.20
2023-04-26T09:53:46.538Z,4.00
2023-04-26T09:56:22.255Z,3.90
2023-04-26T09:58:53.390Z,4.40
2023-04-26T10:01:22.122Z,3.50
2023-04-26T10:03:50.527Z,3.20
2023-04-26T10:06:18.670Z,3.60
2023-04-26T10:08:47.064Z,4.20
2023-04-26T10:11:15.624Z,3.60
2023-04-26T10:13:44.924Z,3.60
2023-04-26T10:16:12.801Z,3.70
2023-04-26T10:18:41.045Z,3.10
2023-04-26T10:21:14.587Z,3.90
2023-04-26T10:23:43.035Z,3.70
2023-04-26T10:26:49.733Z,3.60
2023-04-26T10:29:18.828Z,3.60
2023-04-26T10:32:19.934Z,3.90
2023-04-26T10:35:13.667Z,3.40
2023-04-26T10:38:00.485Z,4.00
2023-04-26T10:40:33.149Z,4.60
2023-04-26T10:43:10.204Z,4.20
2023-04-26T10:45:39.758Z,4.90
2023-04-26T10:48:21.100Z,5.50
2023-04-26T10:51:12.991Z,5.60
2023-04-26T10:53:46.986Z,4.40
2023-04-26T10:56:24.123Z,4.10
2023-04-26T10:59:28.389Z,4.90
2023-04-26T11:02:00.538Z,4.20
2023-04-26T11:04:52.163Z,4.00
2023-04-26T11:07:39.507Z,3.00
2023-04-26T11:10:10.816Z,3.80
2023-04-26T11:12:42.431Z,3.40
2023-04-26T11:15:12.893Z,3.30
2023-04-26T11:17:40.898Z,3.10
2023-04-26T11:20:17.088Z,3.20
2023-04-26T11:22:45.031Z,3.00
2023-04-26T11:25:14.321Z,3.10
2023-04-26T11:27:46.557Z,2.70
2023-04-26T11:30:14.627Z,3.00
2023-04-26T11:32:42.600Z,3.00
2023-04-26T11:35:10.576Z,2.60
2023-04-26T11:37:38.626Z,3.00
2023-04-26T11:40:10.462Z,2.60
2023-04-26T11:42:38.336Z,2.60
2023-04-26T11:45:08.834Z,3.20
2023-04-26T11:47:37.399Z,2.50
2023-04-26T11:50:07.347Z,2.70
2023-04-26T11:52:35.465Z,2.50
2023-04-26T11:55:08.407Z,3.70
2023-04-26T11:57:36.623Z,2.70
2023-04-26T12:00:11.358Z,2.70
2023-04-26T12:02:39.498Z,3.20
2023-04-26T12:05:09.257Z,3.20
2023-04-26T12:07:38.007Z,3.40
2023-04-26T12:10:19.516Z,3.90
2023-04-26T12:12:49.805Z,3.30
2023-04-26T12:15:19.314Z,3.10
2023-04-26T12:17:55.348Z,3.40
2023-04-26T12:20:27.948Z,3.80
2023-04-26T12:23:06.327Z,15.60
2023-04-26T12:25:39.484Z,6.50
2023-04-26T12:28:12.527Z,3.50
2023-04-26T12:30:41.150Z,3.10
2023-04-26T12:33:16.250Z,3.30
2023-04-26T12:35:46.872Z,3.00
2023-04-26T12:38:15.882Z,3.40
2023-04-26T12:40:45.188Z,3.40
2023-04-26T12:43:13.199Z,3.40
2023-04-26T12:45:41.162Z,3.50
2023-04-26T12:48:09.333Z,3.40
2023-04-26T12:50:37.203Z,3.20
2023-04-26T12:53:05.177Z,3.40
2023-04-26T12:55:33.510Z,3.20
2023-04-26T12:58:01.469Z,2.90
2023-04-26T13:00:29.945Z,3.30
2023-04-26T13:02:58.124Z,3.20
2023-04-26T13:05:26.177Z,3.10
2023-04-26T13:07:54.638Z,2.90
2023-04-26T13:10:22.607Z,2.90
2023-04-26T13:12:50.670Z,2.80
2023-04-26T13:15:18.706Z,3.80
2023-04-26T13:17:47.183Z,3.10
2023-04-26T13:20:15.096Z,3.10
2023-04-26T13:22:43.833Z,3.30
2023-04-26T13:25:13.365Z,3.30
2023-04-26T13:27:41.319Z,3.30
2023-04-26T13:30:10.043Z,3.90
2023-04-26T13:32:38.197Z,3.30
2023-04-26T13:35:07.548Z,3.30
2023-04-26T13:37:35.657Z,3.60
2023-04-26T13:40:04.716Z,3.50
2023-04-26T13:42:32.774Z,3.00
2023-04-26T13:45:01.483Z,3.10
2023-04-26T13:47:29.360Z,3.30
2023-04-26T13:49:57.622Z,3.70
2023-04-26T13:52:26.025Z,3.20
2023-04-26T13:54:54.611Z,2.90
2023-04-26T13:57:22.523Z,2.90
2023-04-26T13:59:51.073Z,2.80
2023-04-26T14:02:19.293Z,2.90
2023-04-26T14:04:47.764Z,3.10
2023-04-26T14:07:16.056Z,3.10
2023-04-26T14:09:43.967Z,2.60
2023-04-26T14:12:12.168Z,2.70
2023-04-26T14:14:40.126Z,2.80
2023-04-26T14:17:08.125Z,3.10
2023-04-26T14:19:36.138Z,2.60
2023-04-26T14:22:04.053Z,3.00
2023-04-26T14:24:32.045Z,3.60
2023-04-26T14:27:01.779Z,2.80
2023-04-26T14:29:29.769Z,2.90
2023-04-26T14:31:57.815Z,3.90
2023-04-26T14:34:26.531Z,3.50
2023-04-26T14:36:54.500Z,3.90
2023-04-26T14:39:24.629Z,3.80
2023-04-26T14:41:52.871Z,4.70
2023-04-26T14:44:23.432Z,4.00
2023-04-26T14:46:51.643Z,3.30
2023-04-26T14:49:20.649Z,4.10
2023-04-26T14:51:49.793Z,3.50
2023-04-26T14:54:18.738Z,3.40
2023-04-26T14:56:46.864Z,5.60
2023-04-26T14:59:14.837Z,4.30
2023-04-26T15:01:42.855Z,7.30
2023-04-26T15:04:10.981Z,3.80
2023-04-26T15:06:39.060Z,2.90
2023-04-26T15:09:08.846Z,3.70
2023-04-26T15:11:37.014Z,3.50
2023-04-26T15:14:04.999Z,3.10
2023-04-26T15:16:33.057Z,2.70
2023-04-26T15:19:01.613Z,2.70
2023-04-26T15:21:29.634Z,2.80
2023-04-26T15:23:57.790Z,3.00
2023-04-26T15:26:26.276Z,3.00
2023-04-26T15:28:54.165Z,2.90
2023-04-26T15:31:22.587Z,3.00
2023-04-26T15:33:50.965Z,2.90
2023-04-26T15:36:20.521Z,3.60
2023-04-26T15:38:49.637Z,3.60
2023-04-26T15:41:17.711Z,3.00
2023-04-26T15:43:46.098Z,4.00
2023-04-26T15:46:15.176Z,3.50
2023-04-26T15:48:43.276Z,3.90
2023-04-26T15:51:11.258Z,4.50
2023-04-26T15:53:43.403Z,4.20
2023-04-26T15:56:15.941Z,3.00
2023-04-26T15:58:45.758Z,3.10
2023-04-26T16:01:14.901Z,4.00
2023-04-26T16:03:46.497Z,3.80
2023-04-26T16:06:16.160Z,4.40
2023-04-26T16:08:44.891Z,4.10
2023-04-26T16:11:12.961Z,3.80
2023-04-26T16:13:41.254Z,4.10
2023-04-26T16:16:10.790Z,4.10
2023-04-26T16:18:43.763Z,4.50
2023-04-26T16:21:13.067Z,4.20
2023-04-26T16:23:42.107Z,4.00
2023-04-26T16:26:10.075Z,4.60
2023-04-26T16:28:38.054Z,5.10
2023-04-26T16:31:06.611Z,4.20
2023-04-26T16:33:34.849Z,4.50
2023-04-26T16:36:02.817Z,4.30
2023-04-26T16:38:31.125Z,4.30
2023-04-26T16:41:01.652Z,5.20
2023-04-26T16:43:31.669Z,4.60
2023-04-26T16:46:04.985Z,5.40
2023-04-26T16:48:34.744Z,5.10
2023-04-26T16:51:07.177Z,5.10
2023-04-26T16:53:37.244Z,5.40
2023-04-26T16:56:05.664Z,6.40
2023-04-26T16:58:33.679Z,6.50
2023-04-26T17:01:01.540Z,7.80
2023-04-26T17:03:29.583Z,7.40
2023-04-26T17:05:57.805Z,6.90
2023-04-26T17:08:27.331Z,6.20
2023-04-26T17:10:55.379Z,5.50
2023-04-26T17:13:24.282Z,5.10
2023-04-26T17:15:54.157Z,5.90
2023-04-26T17:18:22.228Z,6.40
2023-04-26T17:20:53.668Z,6.80
2023-04-26T17:23:21.694Z,6.20
2023-04-26T17:25:49.735Z,6.40
2023-04-26T17:28:18.124Z,5.40
2023-04-26T17:30:46.081Z,7.00
2023-04-26T17:33:13.934Z,8.80
2023-04-26T17:35:42.345Z,7.00
2023-04-26T17:38:10.383Z,5.80
2023-04-26T17:40:38.361Z,5.30
2023-04-26T17:43:06.187Z,5.90
2023-04-26T17:45:34.478Z,6.50
2023-04-26T17:48:02.544Z,6.60
2023-04-26T17:50:30.661Z,8.50
2023-04-26T17:52:58.739Z,9.30
2023-04-26T17:55:27.070Z,8.10
2023-04-26T17:57:55.008Z,8.50
2023-04-26T18:00:24.720Z,8.40
2023-04-26T18:02:54.728Z,8.20
2023-04-26T18:05:24.613Z,6.30
2023-04-26T18:07:52.510Z,4.90
2023-04-26T18:10:20.549Z,5.50
2023-04-26T18:12:48.626Z,6.40
2023-04-26T18:15:16.592Z,6.60
2023-04-26T18:17:44.624Z,7.70
2023-04-26T18:20:13.372Z,5.10
2023-04-26T18:22:41.687Z,6.70
2023-04-26T18:25:09.739Z,6.60
2023-04-26T18:27:37.980Z,7.10
2023-04-26T18:30:07.987Z,7.10
2023-04-26T18:32:36.136Z,10.90
2023-04-26T18:35:06.285Z,10.40
2023-04-26T18:37:34.109Z,9.80
2023-04-26T18:40:02.044Z,8.30
2023-04-26T18:42:29.960Z,6.20
2023-04-26T18:44:58.022Z,5.70
2023-04-26T18:47:28.098Z,5.90
2023-04-26T18:49:56.154Z,6.00
2023-04-26T18:52:24.171Z,5.40
2023-04-26T18:54:52.227Z,5.50
2023-04-26T18:57:22.745Z,5.00
2023-04-26T18:59:50.806Z,8.10
2023-04-26T19:02:19.168Z,9.70
2023-04-26T19:04:50.600Z,10.60
2023-04-26T19:07:19.828Z,11.50
2023-04-26T19:09:54.298Z,8.20
2023-04-26T19:12:22.916Z,7.30
2023-04-26T19:14:51.251Z,6.20
2023-04-26T19:17:19.179Z,5.10
2023-04-26T19:19:47.140Z,6.10
2023-04-26T19:22:15.136Z,6.20
2023-04-26T19:24:43.101Z,6.90
2023-04-26T19:27:11.635Z,7.40
2023-04-26T19:29:41.964Z,7.10
2023-04-26T19:32:10.038Z,8.50
2023-04-26T19:34:39.049Z,8.70
2023-04-26T19:37:07.244Z,8.30
2023-04-26T19:39:35.286Z,7.30
2023-04-26T19:42:03.637Z,6.70
2023-04-26T19:44:31.791Z,5.90
2023-04-26T19:46:59.856Z,6.20
2023-04-26T19:49:29.107Z,6.30
2023-04-26T19:51:57.408Z,6.50
2023-04-26T19:54:25.500Z,7.80
2023-04-26T19:56:53.443Z,7.70
2023-04-26T19:59:21.444Z,7.50
2023-04-26T20:01:51.057Z,7.70
2023-04-26T20:04:21.555Z,7.20
2023-04-26T20:06:49.980Z,7.40
2023-04-26T20:09:17.839Z,8.00
2023-04-26T20:11:45.742Z,7.80
2023-04-26T20:14:13.731Z,7.70
2023-04-26T20:16:41.705Z,7.20
2023-04-26T20:19:10.417Z,7.50
2023-04-26T20:21:38.525Z,6.40
2023-04-26T20:24:07.005Z,6.80
2023-04-26T20:26:34.901Z,7.00
2023-04-26T20:29:02.900Z,7.30
2023-04-26T20:31:30.869Z,7.60
2023-04-26T20:34:00.567Z,9.20
2023-04-26T20:36:28.795Z,10.40
2023-04-26T20:38:57.037Z,8.80
2023-04-26T20:41:24.888Z,9.00
2023-04-26T20:43:53.068Z,9.00
2023-04-26T20:46:21.156Z,7.90
2023-04-26T20:48:49.050Z,8.60
2023-04-26T20:51:16.976Z,7.90
2023-04-26T20:53:44.788Z,8.50
2023-04-26T20:56:12.722Z,9.40
2023-04-26T20:58:41.210Z,8.40
2023-04-26T21:01:10.179Z,6.90
2023-04-26T21:03:39.347Z,6.20
2023-04-26T21:06:07.496Z,5.80
2023-04-26T21:08:36.792Z,5.50
2023-04-26T21:11:05.205Z,6.20
2023-04-26T21:13:33.063Z,6.10
2023-04-26T21:16:02.329Z,6.60
2023-04-26T21:18:30.604Z,5.80
2023-04-26T21:20:58.636Z,6.60
2023-04-26T21:23:26.811Z,5.10
2023-04-26T21:25:54.825Z,5.20
2023-04-26T21:28:23.139Z,5.30
2023-04-26T21:30:51.236Z,4.00
2023-04-26T21:33:19.281Z,4.30
2023-04-26T21:35:47.183Z,4.50
2023-04-26T21:38:15.025Z,4.80
2023-04-26T21:40:42.878Z,4.10
2023-04-26T21:43:11.279Z,4.70
2023-04-26T21:45:39.252Z,3.90
2023-04-26T21:48:07.708Z,3.90
2023-04-26T21:50:35.618Z,4.40
2023-04-26T21:53:03.569Z,4.30
2023-04-26T21:55:31.662Z,3.50
2023-04-26T21:57:59.620Z,3.20
2023-04-26T22:00:28.107Z,4.00
2023-04-26T22:02:56.387Z,3.60
2023-04-26T22:05:26.031Z,3.40
2023-04-26T22:07:54.763Z,3.50
2023-04-26T22:10:22.859Z,3.50
2023-04-26T22:12:50.814Z,3.70
2023-04-26T22:15:18.909Z,3.50
2023-04-26T22:17:46.865Z,3.10
2023-04-26T22:20:14.959Z,3.20
2023-04-26T22:22:42.814Z,3.30
2023-04-26T22:25:11.101Z,3.60
2023-04-26T22:27:38.965Z,2.90
2023-04-26T22:30:23.001Z,3.30
2023-04-26T22:32:55.792Z,3.50
2023-04-26T22:35:25.337Z,3.20
2023-04-26T22:37:53.793Z,3.20
2023-04-26T22:40:21.778Z,3.10
2023-04-26T22:42:49.635Z,3.10
2023-04-26T22:45:17.750Z,2.90
2023-04-26T22:47:46.113Z,3.00
2023-04-26T22:50:14.002Z,3.00
2023-04-26T22:52:41.963Z,3.20
2023-04-26T22:55:10.108Z,3.10
2023-04-26T22:57:38.046Z,3.00
2023-04-26T23:00:09.880Z,2.90
2023-04-26T23:02:38.026Z,3.10
2023-04-26T23:05:10.039Z,3.20
2023-04-26T23:07:39.535Z,3.40
2023-04-26T23:10:08.277Z,3.70
2023-04-26T23:12:36.337Z,3.80
2023-04-26T23:15:06.128Z,3.60
2023-04-26T23:17:34.750Z,3.20
2023-04-26T23:20:12.069Z,3.20
2023-04-26T23:22:41.765Z,3.30
2023-04-26T23:25:10.452Z,3.20
2023-04-26T23:27:38.966Z,2.90
2023-04-26T23:30:08.069Z,3.00
2023-04-26T23:32:36.235Z,2.80
2023-04-26T23:35:05.716Z,3.00
2023-04-26T23:37:33.911Z,3.30
2023-04-26T23:40:01.808Z,2.70
2023-04-26T23:42:29.645Z,2.60
2023-04-26T23:44:57.473Z,3.00
2023-04-26T23:47:25.496Z,3.50
2023-04-26T23:49:53.379Z,2.70
2023-04-26T23:52:21.293Z,3.40
2023-04-26T23:54:49.254Z,2.90
2023-04-26T23:57:17.212Z,3.10
2023-04-26T23:59:45.117Z,2.90
